sensor_id;sensor_type;location;lat;lon;timestamp;P1;durP1;ratioP1;P2;durP2;ratioP2
49340;SDS011;35209;51.050;13.678;2023-07-22T00:04:23;5.65;;;2.83;;
49340;SDS011;35209;51.050;13.678;2023-07-22T00:09:25;3.95;;;2.25;;
49340;SDS011;35209;51.050;13.678;2023-07-22T00:14:26;4.10;;;2.25;;
49340;SDS011;35209;51.050;13.678;2023-07-22T00:19:28;2.72;;;2.50;;
49340;SDS011;35209;51.050;13.678;2023-07-22T00:24:30;2.45;;;2.17;;
49340;SDS011;35209;51.050;13.678;2023-07-22T00:29:32;4.20;;;2.55;;
49340;SDS011;35209;51.050;13.678;2023-07-22T00:34:34;3.15;;;2.40;;
49340;SDS011;35209;51.050;13.678;2023-07-22T00:39:36;5.60;;;2.40;;
49340;SDS011;35209;51.050;13.678;2023-07-22T00:44:38;4.00;;;2.85;;
49340;SDS011;35209;51.050;13.678;2023-07-22T00:49:39;8.68;;;2.50;;
49340;SDS011;35209;51.050;13.678;2023-07-22T00:54:42;3.65;;;2.50;;
49340;SDS011;35209;51.050;13.678;2023-07-22T00:59:44;2.60;;;2.00;;
49340;SDS011;35209;51.050;13.678;2023-07-22T01:04:46;3.90;;;2.63;;
49340;SDS011;35209;51.050;13.678;2023-07-22T01:09:48;5.25;;;3.00;;
49340;SDS011;35209;51.050;13.678;2023-07-22T01:14:50;4.57;;;2.72;;
49340;SDS011;35209;51.050;13.678;2023-07-22T01:19:52;4.53;;;3.30;;
49340;SDS011;35209;51.050;13.678;2023-07-22T01:24:54;9.90;;;3.00;;
49340;SDS011;35209;51.050;13.678;2023-07-22T01:29:57;6.57;;;3.58;;
49340;SDS011;35209;51.050;13.678;2023-07-22T01:34:59;4.88;;;3.33;;
49340;SDS011;35209;51.050;13.678;2023-07-22T01:40:01;10.50;;;3.15;;
49340;SDS011;35209;51.050;13.678;2023-07-22T01:45:13;8.50;;;3.22;;
49340;SDS011;35209;51.050;13.678;2023-07-22T01:50:15;7.63;;;3.50;;
49340;SDS011;35209;51.050;13.678;2023-07-22T01:55:17;7.18;;;3.85;;
49340;SDS011;35209;51.050;13.678;2023-07-22T02:00:20;6.68;;;3.67;;
49340;SDS011;35209;51.050;13.678;2023-07-22T02:05:22;8.77;;;3.70;;
49340;SDS011;35209;51.050;13.678;2023-07-22T02:10:24;5.43;;;4.07;;
49340;SDS011;35209;51.050;13.678;2023-07-22T02:15:26;9.50;;;3.78;;
49340;SDS011;35209;51.050;13.678;2023-07-22T02:20:27;6.22;;;3.42;;
49340;SDS011;35209;51.050;13.678;2023-07-22T02:25:30;12.07;;;4.03;;
49340;SDS011;35209;51.050;13.678;2023-07-22T02:30:36;11.93;;;4.13;;
49340;SDS011;35209;51.050;13.678;2023-07-22T02:35:38;8.47;;;4.20;;
49340;SDS011;35209;51.050;13.678;2023-07-22T02:40:41;6.43;;;3.63;;
49340;SDS011;35209;51.050;13.678;2023-07-22T02:45:44;12.43;;;3.83;;
49340;SDS011;35209;51.050;13.678;2023-07-22T02:50:46;7.90;;;4.43;;
49340;SDS011;35209;51.050;13.678;2023-07-22T02:55:48;7.70;;;4.20;;
49340;SDS011;35209;51.050;13.678;2023-07-22T03:00:49;9.32;;;4.60;;
49340;SDS011;35209;51.050;13.678;2023-07-22T03:05:52;8.40;;;5.28;;
49340;SDS011;35209;51.050;13.678;2023-07-22T03:10:53;8.00;;;5.35;;
49340;SDS011;35209;51.050;13.678;2023-07-22T03:15:55;10.82;;;5.13;;
49340;SDS011;35209;51.050;13.678;2023-07-22T03:20:58;7.85;;;5.35;;
49340;SDS011;35209;51.050;13.678;2023-07-22T03:25:59;10.63;;;5.32;;
49340;SDS011;35209;51.050;13.678;2023-07-22T03:31:01;8.35;;;3.97;;
49340;SDS011;35209;51.050;13.678;2023-07-22T03:36:04;7.65;;;4.05;;
49340;SDS011;35209;51.050;13.678;2023-07-22T03:41:05;7.57;;;4.38;;
49340;SDS011;35209;51.050;13.678;2023-07-22T03:46:07;5.50;;;4.30;;
49340;SDS011;35209;51.050;13.678;2023-07-22T03:51:09;10.65;;;4.53;;
49340;SDS011;35209;51.050;13.678;2023-07-22T03:56:21;6.15;;;3.88;;
49340;SDS011;35209;51.050;13.678;2023-07-22T04:01:25;6.25;;;4.20;;
49340;SDS011;35209;51.050;13.678;2023-07-22T04:06:27;6.65;;;4.00;;
49340;SDS011;35209;51.050;13.678;2023-07-22T04:11:29;8.73;;;3.95;;
49340;SDS011;35209;51.050;13.678;2023-07-22T04:16:31;5.78;;;3.63;;
49340;SDS011;35209;51.050;13.678;2023-07-22T04:21:33;8.15;;;4.90;;
49340;SDS011;35209;51.050;13.678;2023-07-22T04:26:35;6.75;;;4.50;;
49340;SDS011;35209;51.050;13.678;2023-07-22T04:31:36;9.18;;;4.10;;
49340;SDS011;35209;51.050;13.678;2023-07-22T04:36:39;5.13;;;3.60;;
49340;SDS011;35209;51.050;13.678;2023-07-22T04:41:40;8.13;;;4.03;;
49340;SDS011;35209;51.050;13.678;2023-07-22T04:46:42;9.77;;;3.38;;
49340;SDS011;35209;51.050;13.678;2023-07-22T04:51:44;5.70;;;3.55;;
49340;SDS011;35209;51.050;13.678;2023-07-22T04:56:47;5.15;;;3.83;;
49340;SDS011;35209;51.050;13.678;2023-07-22T05:01:49;5.10;;;3.75;;
49340;SDS011;35209;51.050;13.678;2023-07-22T05:06:50;8.10;;;3.95;;
49340;SDS011;35209;51.050;13.678;2023-07-22T05:11:52;6.10;;;3.58;;
49340;SDS011;35209;51.050;13.678;2023-07-22T05:16:54;7.97;;;4.00;;
49340;SDS011;35209;51.050;13.678;2023-07-22T05:21:55;4.05;;;3.75;;
49340;SDS011;35209;51.050;13.678;2023-07-22T05:26:57;5.18;;;4.03;;
49340;SDS011;35209;51.050;13.678;2023-07-22T05:32:10;4.63;;;4.15;;
49340;SDS011;35209;51.050;13.678;2023-07-22T05:37:32;10.35;;;3.33;;
49340;SDS011;35209;51.050;13.678;2023-07-22T05:42:33;4.22;;;3.15;;
49340;SDS011;35209;51.050;13.678;2023-07-22T05:47:35;5.93;;;3.22;;
49340;SDS011;35209;51.050;13.678;2023-07-22T05:52:37;4.10;;;2.75;;
49340;SDS011;35209;51.050;13.678;2023-07-22T05:57:39;6.45;;;3.35;;
49340;SDS011;35209;51.050;13.678;2023-07-22T06:02:41;4.63;;;4.18;;
49340;SDS011;35209;51.050;13.678;2023-07-22T06:07:43;5.60;;;4.13;;
49340;SDS011;35209;51.050;13.678;2023-07-22T06:12:45;4.03;;;3.60;;
49340;SDS011;35209;51.050;13.678;2023-07-22T06:17:48;4.78;;;3.72;;
49340;SDS011;35209;51.050;13.678;2023-07-22T06:22:50;6.25;;;4.60;;
49340;SDS011;35209;51.050;13.678;2023-07-22T06:27:51;5.13;;;4.57;;
49340;SDS011;35209;51.050;13.678;2023-07-22T06:32:55;5.47;;;3.83;;
49340;SDS011;35209;51.050;13.678;2023-07-22T06:37:57;5.60;;;3.90;;
49340;SDS011;35209;51.050;13.678;2023-07-22T06:43:01;4.30;;;3.80;;
49340;SDS011;35209;51.050;13.678;2023-07-22T06:48:03;6.07;;;4.10;;
49340;SDS011;35209;51.050;13.678;2023-07-22T06:53:05;6.15;;;4.72;;
49340;SDS011;35209;51.050;13.678;2023-07-22T06:58:08;5.07;;;4.22;;
49340;SDS011;35209;51.050;13.678;2023-07-22T07:03:11;6.30;;;4.05;;
49340;SDS011;35209;51.050;13.678;2023-07-22T07:08:16;5.57;;;3.40;;
49340;SDS011;35209;51.050;13.678;2023-07-22T07:13:18;5.28;;;4.32;;
49340;SDS011;35209;51.050;13.678;2023-07-22T07:18:21;4.40;;;4.03;;
49340;SDS011;35209;51.050;13.678;2023-07-22T07:23:23;5.05;;;3.88;;
49340;SDS011;35209;51.050;13.678;2023-07-22T07:28:27;5.93;;;4.32;;
49340;SDS011;35209;51.050;13.678;2023-07-22T07:33:30;6.13;;;4.03;;
49340;SDS011;35209;51.050;13.678;2023-07-22T07:38:33;3.92;;;3.28;;
49340;SDS011;35209;51.050;13.678;2023-07-22T07:43:35;4.50;;;4.10;;
49340;SDS011;35209;51.050;13.678;2023-07-22T07:48:38;4.93;;;3.92;;
49340;SDS011;35209;51.050;13.678;2023-07-22T07:53:41;4.00;;;3.40;;
49340;SDS011;35209;51.050;13.678;2023-07-22T07:58:46;6.22;;;4.20;;
49340;SDS011;35209;51.050;13.678;2023-07-22T08:03:53;5.90;;;3.78;;
49340;SDS011;35209;51.050;13.678;2023-07-22T08:08:56;3.37;;;3.07;;
49340;SDS011;35209;51.050;13.678;2023-07-22T08:13:58;4.13;;;3.83;;
49340;SDS011;35209;51.050;13.678;2023-07-22T08:19:00;4.05;;;3.65;;
49340;SDS011;35209;51.050;13.678;2023-07-22T08:24:03;4.70;;;4.15;;
49340;SDS011;35209;51.050;13.678;2023-07-22T08:29:05;4.72;;;4.05;;
49340;SDS011;35209;51.050;13.678;2023-07-22T08:34:08;4.38;;;4.00;;
49340;SDS011;35209;51.050;13.678;2023-07-22T08:39:11;4.03;;;3.72;;
49340;SDS011;35209;51.050;13.678;2023-07-22T08:44:13;3.22;;;2.92;;
49340;SDS011;35209;51.050;13.678;2023-07-22T08:49:26;3.75;;;3.05;;
49340;SDS011;35209;51.050;13.678;2023-07-22T08:54:29;3.63;;;3.25;;
49340;SDS011;35209;51.050;13.678;2023-07-22T08:59:32;4.40;;;2.38;;
49340;SDS011;35209;51.050;13.678;2023-07-22T09:04:35;3.08;;;2.47;;
49340;SDS011;35209;51.050;13.678;2023-07-22T09:09:39;2.80;;;2.53;;
49340;SDS011;35209;51.050;13.678;2023-07-22T09:14:46;2.35;;;2.15;;
49340;SDS011;35209;51.050;13.678;2023-07-22T09:19:54;2.45;;;2.15;;
49340;SDS011;35209;51.050;13.678;2023-07-22T09:25:13;2.50;;;2.05;;
49340;SDS011;35209;51.050;13.678;2023-07-22T09:35:31;3.75;;;2.47;;
49340;SDS011;35209;51.050;13.678;2023-07-22T09:40:56;2.25;;;2.05;;
49340;SDS011;35209;51.050;13.678;2023-07-22T09:46:08;2.15;;;1.95;;
49340;SDS011;35209;51.050;13.678;2023-07-22T09:51:15;2.45;;;2.25;;
49340;SDS011;35209;51.050;13.678;2023-07-22T09:56:19;2.63;;;1.80;;
49340;SDS011;35209;51.050;13.678;2023-07-22T10:01:23;2.28;;;1.90;;
49340;SDS011;35209;51.050;13.678;2023-07-22T10:06:29;2.83;;;1.83;;
49340;SDS011;35209;51.050;13.678;2023-07-22T10:11:32;2.17;;;1.98;;
49340;SDS011;35209;51.050;13.678;2023-07-22T10:16:34;2.17;;;2.00;;
49340;SDS011;35209;51.050;13.678;2023-07-22T10:21:38;2.35;;;2.10;;
49340;SDS011;35209;51.050;13.678;2023-07-22T10:26:40;3.53;;;2.08;;
49340;SDS011;35209;51.050;13.678;2023-07-22T10:31:48;2.00;;;1.80;;
49340;SDS011;35209;51.050;13.678;2023-07-22T10:36:56;2.13;;;2.00;;
49340;SDS011;35209;51.050;13.678;2023-07-22T10:42:03;1.90;;;1.77;;
49340;SDS011;35209;51.050;13.678;2023-07-22T10:47:07;2.70;;;1.83;;
49340;SDS011;35209;51.050;13.678;2023-07-22T10:52:10;2.88;;;1.67;;
49340;SDS011;35209;51.050;13.678;2023-07-22T11:07:43;1.70;;;1.60;;
49340;SDS011;35209;51.050;13.678;2023-07-22T11:12:48;2.97;;;1.70;;
49340;SDS011;35209;51.050;13.678;2023-07-22T11:17:50;1.77;;;1.67;;
49340;SDS011;35209;51.050;13.678;2023-07-22T11:22:51;3.67;;;2.40;;
49340;SDS011;35209;51.050;13.678;2023-07-22T11:27:53;1.85;;;1.75;;
49340;SDS011;35209;51.050;13.678;2023-07-22T11:32:57;1.80;;;1.60;;
49340;SDS011;35209;51.050;13.678;2023-07-22T11:38:01;1.63;;;1.50;;
49340;SDS011;35209;51.050;13.678;2023-07-22T11:43:04;2.83;;;2.15;;
49340;SDS011;35209;51.050;13.678;2023-07-22T11:48:10;2.85;;;1.77;;
49340;SDS011;35209;51.050;13.678;2023-07-22T11:53:13;1.50;;;1.40;;
49340;SDS011;35209;51.050;13.678;2023-07-22T11:58:23;2.40;;;1.70;;
49340;SDS011;35209;51.050;13.678;2023-07-22T12:03:32;1.88;;;1.73;;
49340;SDS011;35209;51.050;13.678;2023-07-22T12:08:35;2.75;;;1.60;;
49340;SDS011;35209;51.050;13.678;2023-07-22T12:13:38;1.73;;;1.30;;
49340;SDS011;35209;51.050;13.678;2023-07-22T12:18:40;2.67;;;1.55;;
49340;SDS011;35209;51.050;13.678;2023-07-22T12:23:43;1.50;;;1.40;;
49340;SDS011;35209;51.050;13.678;2023-07-22T12:28:45;1.95;;;1.40;;
49340;SDS011;35209;51.050;13.678;2023-07-22T12:33:48;2.42;;;1.52;;
49340;SDS011;35209;51.050;13.678;2023-07-22T12:38:50;1.60;;;1.50;;
49340;SDS011;35209;51.050;13.678;2023-07-22T12:43:52;2.90;;;1.50;;
49340;SDS011;35209;51.050;13.678;2023-07-22T12:48:56;2.10;;;1.58;;
49340;SDS011;35209;51.050;13.678;2023-07-22T12:53:58;1.95;;;1.50;;
49340;SDS011;35209;51.050;13.678;2023-07-22T12:59:01;1.73;;;1.63;;
49340;SDS011;35209;51.050;13.678;2023-07-22T13:04:03;1.88;;;1.60;;
49340;SDS011;35209;51.050;13.678;2023-07-22T13:09:05;1.40;;;1.30;;
49340;SDS011;35209;51.050;13.678;2023-07-22T13:14:08;1.65;;;1.55;;
49340;SDS011;35209;51.050;13.678;2023-07-22T13:19:10;1.90;;;1.70;;
49340;SDS011;35209;51.050;13.678;2023-07-22T13:24:15;3.43;;;1.90;;
49340;SDS011;35209;51.050;13.678;2023-07-22T13:29:17;1.60;;;1.50;;
49340;SDS011;35209;51.050;13.678;2023-07-22T13:34:19;1.40;;;1.30;;
49340;SDS011;35209;51.050;13.678;2023-07-22T13:39:21;1.60;;;1.50;;
49340;SDS011;35209;51.050;13.678;2023-07-22T13:44:23;1.70;;;1.60;;
49340;SDS011;35209;51.050;13.678;2023-07-22T13:49:25;2.10;;;1.60;;
49340;SDS011;35209;51.050;13.678;2023-07-22T13:54:27;1.98;;;1.73;;
49340;SDS011;35209;51.050;13.678;2023-07-22T13:59:29;1.90;;;1.80;;
49340;SDS011;35209;51.050;13.678;2023-07-22T14:04:31;2.50;;;2.00;;
49340;SDS011;35209;51.050;13.678;2023-07-22T14:09:33;2.35;;;1.70;;
49340;SDS011;35209;51.050;13.678;2023-07-22T14:14:35;2.00;;;1.90;;
49340;SDS011;35209;51.050;13.678;2023-07-22T14:19:37;2.53;;;2.08;;
49340;SDS011;35209;51.050;13.678;2023-07-22T14:24:39;2.10;;;1.90;;
49340;SDS011;35209;51.050;13.678;2023-07-22T14:29:41;2.45;;;1.98;;
49340;SDS011;35209;51.050;13.678;2023-07-22T14:34:43;1.90;;;1.75;;
49340;SDS011;35209;51.050;13.678;2023-07-22T14:39:45;1.85;;;1.70;;
49340;SDS011;35209;51.050;13.678;2023-07-22T14:44:48;2.97;;;2.05;;
49340;SDS011;35209;51.050;13.678;2023-07-22T14:49:50;2.42;;;1.83;;
49340;SDS011;35209;51.050;13.678;2023-07-22T14:54:54;2.45;;;1.58;;
49340;SDS011;35209;51.050;13.678;2023-07-22T14:59:56;1.95;;;1.80;;
49340;SDS011;35209;51.050;13.678;2023-07-22T15:04:58;2.05;;;1.70;;
49340;SDS011;35209;51.050;13.678;2023-07-22T15:10:00;1.75;;;1.60;;
49340;SDS011;35209;51.050;13.678;2023-07-22T15:15:04;2.00;;;1.90;;
49340;SDS011;35209;51.050;13.678;2023-07-22T15:20:09;2.08;;;1.90;;
49340;SDS011;35209;51.050;13.678;2023-07-22T15:25:12;1.63;;;1.52;;
49340;SDS011;35209;51.050;13.678;2023-07-22T15:30:14;2.70;;;2.08;;
49340;SDS011;35209;51.050;13.678;2023-07-22T15:35:30;2.10;;;2.00;;
49340;SDS011;35209;51.050;13.678;2023-07-22T15:40:36;1.80;;;1.70;;
49340;SDS011;35209;51.050;13.678;2023-07-22T15:45:38;2.63;;;1.88;;
49340;SDS011;35209;51.050;13.678;2023-07-22T15:50:40;1.83;;;1.73;;
49340;SDS011;35209;51.050;13.678;2023-07-22T15:55:42;2.25;;;2.05;;
49340;SDS011;35209;51.050;13.678;2023-07-22T16:00:46;2.22;;;2.03;;
49340;SDS011;35209;51.050;13.678;2023-07-22T16:05:49;2.38;;;2.17;;
49340;SDS011;35209;51.050;13.678;2023-07-22T16:10:52;2.25;;;2.05;;
49340;SDS011;35209;51.050;13.678;2023-07-22T16:15:57;3.63;;;2.03;;
49340;SDS011;35209;51.050;13.678;2023-07-22T16:20:59;2.40;;;2.20;;
49340;SDS011;35209;51.050;13.678;2023-07-22T16:26:01;4.00;;;2.05;;
49340;SDS011;35209;51.050;13.678;2023-07-22T16:31:03;2.40;;;2.20;;
49340;SDS011;35209;51.050;13.678;2023-07-22T16:36:05;2.10;;;2.00;;
49340;SDS011;35209;51.050;13.678;2023-07-22T16:41:07;3.15;;;2.10;;
49340;SDS011;35209;51.050;13.678;2023-07-22T16:46:09;2.50;;;2.22;;
49340;SDS011;35209;51.050;13.678;2023-07-22T16:51:11;2.60;;;1.90;;
49340;SDS011;35209;51.050;13.678;2023-07-22T16:56:13;2.40;;;2.20;;
49340;SDS011;35209;51.050;13.678;2023-07-22T17:01:15;2.67;;;2.33;;
49340;SDS011;35209;51.050;13.678;2023-07-22T17:06:18;2.65;;;2.03;;
49340;SDS011;35209;51.050;13.678;2023-07-22T17:11:20;2.25;;;2.05;;
49340;SDS011;35209;51.050;13.678;2023-07-22T17:16:22;2.35;;;2.10;;
49340;SDS011;35209;51.050;13.678;2023-07-22T17:21:25;2.92;;;2.20;;
49340;SDS011;35209;51.050;13.678;2023-07-22T17:26:27;3.30;;;2.22;;
49340;SDS011;35209;51.050;13.678;2023-07-22T17:31:29;2.58;;;2.38;;
49340;SDS011;35209;51.050;13.678;2023-07-22T17:36:31;2.53;;;2.33;;
49340;SDS011;35209;51.050;13.678;2023-07-22T17:41:34;2.50;;;2.20;;
49340;SDS011;35209;51.050;13.678;2023-07-22T17:46:36;2.17;;;2.08;;
49340;SDS011;35209;51.050;13.678;2023-07-22T17:51:38;2.17;;;2.00;;
49340;SDS011;35209;51.050;13.678;2023-07-22T17:56:41;2.60;;;1.95;;
49340;SDS011;35209;51.050;13.678;2023-07-22T18:01:46;2.65;;;2.45;;
49340;SDS011;35209;51.050;13.678;2023-07-22T18:06:48;2.95;;;2.63;;
49340;SDS011;35209;51.050;13.678;2023-07-22T18:11:52;2.40;;;2.20;;
49340;SDS011;35209;51.050;13.678;2023-07-22T18:16:57;2.90;;;2.70;;
49340;SDS011;35209;51.050;13.678;2023-07-22T18:22:00;3.08;;;2.88;;
49340;SDS011;35209;51.050;13.678;2023-07-22T18:27:02;2.90;;;2.70;;
49340;SDS011;35209;51.050;13.678;2023-07-22T18:32:05;2.50;;;2.30;;
49340;SDS011;35209;51.050;13.678;2023-07-22T18:37:07;2.72;;;2.03;;
49340;SDS011;35209;51.050;13.678;2023-07-22T18:42:09;3.10;;;2.90;;
49340;SDS011;35209;51.050;13.678;2023-07-22T18:47:11;3.63;;;3.33;;
49340;SDS011;35209;51.050;13.678;2023-07-22T18:52:13;3.40;;;3.10;;
49340;SDS011;35209;51.050;13.678;2023-07-22T18:57:15;3.30;;;3.00;;
49340;SDS011;35209;51.050;13.678;2023-07-22T19:02:17;4.18;;;3.83;;
49340;SDS011;35209;51.050;13.678;2023-07-22T19:07:19;4.18;;;3.85;;
49340;SDS011;35209;51.050;13.678;2023-07-22T19:12:21;4.53;;;4.13;;
49340;SDS011;35209;51.050;13.678;2023-07-22T19:17:23;4.32;;;4.03;;
49340;SDS011;35209;51.050;13.678;2023-07-22T19:22:29;5.40;;;5.00;;
49340;SDS011;35209;51.050;13.678;2023-07-22T19:27:31;7.20;;;5.05;;
49340;SDS011;35209;51.050;13.678;2023-07-22T19:32:33;6.20;;;5.57;;
49340;SDS011;35209;51.050;13.678;2023-07-22T19:37:35;6.30;;;5.80;;
49340;SDS011;35209;51.050;13.678;2023-07-22T19:42:38;6.43;;;5.90;;
49340;SDS011;35209;51.050;13.678;2023-07-22T19:47:41;6.07;;;5.68;;
49340;SDS011;35209;51.050;13.678;2023-07-22T19:52:43;5.95;;;5.45;;
49340;SDS011;35209;51.050;13.678;2023-07-22T19:57:45;5.50;;;5.10;;
49340;SDS011;35209;51.050;13.678;2023-07-22T20:02:47;4.53;;;4.05;;
49340;SDS011;35209;51.050;13.678;2023-07-22T20:07:49;4.97;;;4.57;;
49340;SDS011;35209;51.050;13.678;2023-07-22T20:12:52;5.40;;;4.95;;
49340;SDS011;35209;51.050;13.678;2023-07-22T20:17:54;5.22;;;4.82;;
49340;SDS011;35209;51.050;13.678;2023-07-22T20:22:56;5.35;;;4.85;;
49340;SDS011;35209;51.050;13.678;2023-07-22T20:27:59;5.68;;;5.20;;
49340;SDS011;35209;51.050;13.678;2023-07-22T20:33:01;4.28;;;3.95;;
49340;SDS011;35209;51.050;13.678;2023-07-22T20:38:03;5.20;;;4.75;;
49340;SDS011;35209;51.050;13.678;2023-07-22T20:43:05;5.13;;;4.65;;
49340;SDS011;35209;51.050;13.678;2023-07-22T20:48:08;5.15;;;4.72;;
49340;SDS011;35209;51.050;13.678;2023-07-22T20:53:10;4.88;;;4.32;;
49340;SDS011;35209;51.050;13.678;2023-07-22T20:58:12;4.90;;;4.40;;
49340;SDS011;35209;51.050;13.678;2023-07-22T21:03:14;4.78;;;4.43;;
49340;SDS011;35209;51.050;13.678;2023-07-22T21:08:16;4.93;;;4.43;;
49340;SDS011;35209;51.050;13.678;2023-07-22T21:13:18;4.70;;;4.30;;
49340;SDS011;35209;51.050;13.678;2023-07-22T21:18:20;4.75;;;4.35;;
49340;SDS011;35209;51.050;13.678;2023-07-22T21:23:22;5.18;;;4.53;;
49340;SDS011;35209;51.050;13.678;2023-07-22T21:28:24;4.32;;;3.92;;
49340;SDS011;35209;51.050;13.678;2023-07-22T21:33:27;4.90;;;4.40;;
49340;SDS011;35209;51.050;13.678;2023-07-22T21:38:28;4.45;;;4.15;;
49340;SDS011;35209;51.050;13.678;2023-07-22T21:43:30;4.70;;;4.40;;
49340;SDS011;35209;51.050;13.678;2023-07-22T21:48:32;4.88;;;4.07;;
49340;SDS011;35209;51.050;13.678;2023-07-22T21:53:33;4.57;;;3.88;;
49340;SDS011;35209;51.050;13.678;2023-07-22T21:58:35;5.15;;;4.65;;
49340;SDS011;35209;51.050;13.678;2023-07-22T22:03:37;4.28;;;3.88;;
49340;SDS011;35209;51.050;13.678;2023-07-22T22:08:39;4.38;;;3.85;;
49340;SDS011;35209;51.050;13.678;2023-07-22T22:13:40;3.80;;;3.50;;
49340;SDS011;35209;51.050;13.678;2023-07-22T22:18:42;3.67;;;3.30;;
49340;SDS011;35209;51.050;13.678;2023-07-22T22:23:44;4.00;;;3.70;;
49340;SDS011;35209;51.050;13.678;2023-07-22T22:28:46;5.32;;;3.60;;
49340;SDS011;35209;51.050;13.678;2023-07-22T22:33:48;4.28;;;3.88;;
49340;SDS011;35209;51.050;13.678;2023-07-22T22:38:49;3.28;;;2.97;;
49340;SDS011;35209;51.050;13.678;2023-07-22T22:43:51;3.60;;;3.30;;
49340;SDS011;35209;51.050;13.678;2023-07-22T22:48:53;3.90;;;3.60;;
49340;SDS011;35209;51.050;13.678;2023-07-22T22:53:54;3.25;;;2.90;;
49340;SDS011;35209;51.050;13.678;2023-07-22T22:58:56;3.47;;;3.17;;
49340;SDS011;35209;51.050;13.678;2023-07-22T23:03:58;4.30;;;3.05;;
49340;SDS011;35209;51.050;13.678;2023-07-22T23:09:00;2.88;;;2.67;;
49340;SDS011;35209;51.050;13.678;2023-07-22T23:14:02;3.33;;;3.03;;
49340;SDS011;35209;51.050;13.678;2023-07-22T23:19:04;2.95;;;2.65;;
49340;SDS011;35209;51.050;13.678;2023-07-22T23:24:05;3.45;;;3.15;;
49340;SDS011;35209;51.050;13.678;2023-07-22T23:29:07;4.15;;;2.88;;
49340;SDS011;35209;51.050;13.678;2023-07-22T23:34:09;2.88;;;2.63;;
49340;SDS011;35209;51.050;13.678;2023-07-22T23:39:11;2.47;;;2.28;;
49340;SDS011;35209;51.050;13.678;2023-07-22T23:44:13;3.63;;;3.33;;
49340;SDS011;35209;51.050;13.678;2023-07-22T23:49:15;3.42;;;3.13;;
49340;SDS011;35209;51.050;13.678;2023-07-22T23:54:16;2.97;;;2.65;;
49340;SDS011;35209;51.050;13.678;2023-07-22T23:59:18;3.15;;;2.70;;
